Carolina, PR (00981)

2:46 PM AST on September 23, 2014 (GMT -0400)
Manejo de Emergencias | Change Station
CLOSE
Current Station
Personal Weather Station
Location: Carolina, PR
Elevation: 40 ft
Nearby Weather Stations
Active Advisory: Flood Watch

Elev 40 ft 18.38 °N, 65.97 °W | Updated 13 minutes ago

Overcast
Overcast
83.6 °F
Feels Like 92 °F
N
3.0
Wind Variable Wind from SW
Gusts 9.0 mph

Today
High -- | Low -- °F
--% Chance of Precip.
Yesterday
High -- | Low -- °F
Precip. -- in
6:13 AM 6:19 PM
Waning Crescent, 0% visible
Pressure 29.92 in
Visibility 10.0 miles
Clouds Few 3000 ft
Scattered Clouds 4200 ft
Scattered Clouds 12000 ft
Heat Index 92 °F
Dew Point 76 °F
Humidity 78%
Rainfall -999.00 in
Snow Depth Not available.
UV 7 out of 12
Pollen Not available.
Air Quality Not available.
Flu Activity Not available.
SPECI TJSJ 231809Z 00000KT 10SM TS FEW030TCU SCT042 SCT120 29/23 A2992 RMK AO2 TSB09 OCNL LTGICCG NW TS NW MOV NW

More Conditions Fewer Conditions

Pressure 29.92 in
Visibility 10.0 miles
Clouds Few 3000 ft
Scattered Clouds 4200 ft
Scattered Clouds 12000 ft
Heat Index 92 °F
Dew Point 76 °F
Humidity 78%
Rainfall -999.00 in
Snow Depth Not available.
UV 7 out of 12
Pollen Not available.
Air Quality Not available.
Flu Activity Not available.
SPECI TJSJ 231809Z 00000KT 10SM TS FEW030TCU SCT042 SCT120 29/23 A2992 RMK AO2 TSB09 OCNL LTGICCG NW TS NW MOV NW

More Conditions Fewer Conditions

10-Day Weather Forecast

Almanac

Astronomy

Sep. 23, 2014 Rise Set
Actual Time 6:13 AM AST 6:19 PM AST
Civil Twilight 5:51 AM AST 6:41 PM AST
Nautical Twilight 5:25 AM AST 7:06 PM AST
Astronomical Twilight 5:00 AM AST 7:31 PM AST
Moon 5:35 AM AST 5:57 PM AST
Length of Visible Light 12h 49m
Length of Day
12h 06m
Tomorrow will be 1m 2s shorter.
Waning Crescent, 0% of the Moon is Illuminated
Today
Waning Crescent
Sep 24
New
Oct 1
First Quarter
Oct 8
Full
Oct 15
Last Quarter

Community

WunderPhotos

Upload Photos

1,755,775 photos uploaded!

Nearby

Snow Depth

Station Depth Elevation
No new snow has been reported.

Earthquake Activity

City Distance Mag. Time & Date
No recent earthquake activity has been reported nearby.
Minimum magnitude displayed is 2.5.

Coastal Water Temperatures

Place Temperature
San Juan, PR 86.0 °F
Mayaguez, PR 86.0 °F
Esperanza, PR 86.0 °F

Nearby Weather Stations